createdAt,value
2023-05-08T00:00:16.049Z,29.736
2023-05-08T00:05:16.037Z,29.736
2023-05-08T00:10:16.176Z,29.735
2023-05-08T00:15:16.136Z,29.735
2023-05-08T00:20:16.049Z,29.736
2023-05-08T00:25:16.098Z,29.738
2023-05-08T00:30:16.193Z,29.736
2023-05-08T00:35:16.115Z,29.739
2023-05-08T00:40:16.241Z,29.739
2023-05-08T00:45:16.149Z,29.738
2023-05-08T00:50:16.259Z,29.739
2023-05-08T00:55:16.296Z,29.737
2023-05-08T01:00:16.106Z,29.737
2023-05-08T01:05:16.189Z,29.738
2023-05-08T01:10:16.180Z,29.736
2023-05-08T01:15:16.220Z,29.738
2023-05-08T01:20:16.206Z,29.738
2023-05-08T01:25:16.292Z,29.739
2023-05-08T01:30:16.378Z,29.740
2023-05-08T01:35:16.275Z,29.739
2023-05-08T01:40:16.639Z,29.740
2023-05-08T01:45:16.407Z,29.738
2023-05-08T01:50:16.409Z,29.738
2023-05-08T01:55:16.285Z,29.736
2023-05-08T02:00:16.255Z,29.737
2023-05-08T02:05:16.300Z,29.737
2023-05-08T02:10:16.338Z,29.738
2023-05-08T02:15:16.286Z,29.736
2023-05-08T02:20:16.516Z,29.735
2023-05-08T02:25:16.488Z,29.738
2023-05-08T02:30:16.294Z,29.740
2023-05-08T02:35:16.435Z,29.744
2023-05-08T02:40:16.382Z,29.749
2023-05-08T02:45:16.383Z,29.749
2023-05-08T02:50:16.597Z,29.751
2023-05-08T02:55:16.707Z,29.755
2023-05-08T03:00:16.438Z,29.757
2023-05-08T03:05:16.659Z,29.762
2023-05-08T03:10:16.417Z,29.763
2023-05-08T03:15:16.531Z,29.765
2023-05-08T03:20:16.455Z,29.765
2023-05-08T03:25:16.466Z,29.763
2023-05-08T03:30:16.438Z,29.764
2023-05-08T03:35:16.535Z,29.766
2023-05-08T03:40:16.457Z,29.763
2023-05-08T03:45:16.635Z,29.761
2023-05-08T03:50:16.683Z,29.761
2023-05-08T03:55:16.578Z,29.761
2023-05-08T04:00:15.677Z,29.761
2023-05-08T04:05:15.529Z,29.760
2023-05-08T04:10:15.761Z,29.759
2023-05-08T04:15:15.855Z,29.757
2023-05-08T04:20:15.671Z,29.756
2023-05-08T04:25:15.752Z,29.754
2023-05-08T04:30:15.558Z,29.756
2023-05-08T04:35:15.779Z,29.754
2023-05-08T04:40:15.673Z,29.753
2023-05-08T04:45:15.709Z,29.751
2023-05-08T04:50:15.961Z,29.751
2023-05-08T04:55:15.744Z,29.749
2023-05-08T05:00:15.714Z,29.751
2023-05-08T05:05:15.693Z,29.747
2023-05-08T05:10:15.710Z,29.746
2023-05-08T05:15:15.886Z,29.745
2023-05-08T05:20:15.709Z,29.743
2023-05-08T05:25:15.938Z,29.738
2023-05-08T05:30:15.757Z,29.740
2023-05-08T05:35:15.772Z,29.736
2023-05-08T05:40:15.701Z,29.735
2023-05-08T05:45:15.791Z,29.732
2023-05-08T05:50:15.757Z,29.732
2023-05-08T05:55:15.926Z,29.732
2023-05-08T06:00:15.997Z,29.727
2023-05-08T06:05:15.898Z,29.724
2023-05-08T06:10:15.751Z,29.724
2023-05-08T06:15:15.821Z,29.722
2023-05-08T06:20:15.880Z,29.722
2023-05-08T06:25:15.817Z,29.721
2023-05-08T06:30:15.827Z,29.718
2023-05-08T06:35:15.794Z,29.716
2023-05-08T06:40:15.861Z,29.717
2023-05-08T06:45:16.201Z,29.716
2023-05-08T06:50:15.922Z,29.717
2023-05-08T06:55:15.903Z,29.713
2023-05-08T07:00:16.045Z,29.714
2023-05-08T07:05:16.554Z,29.716
2023-05-08T07:10:15.897Z,29.717
2023-05-08T07:15:25.372Z,29.717
2023-05-08T07:20:15.905Z,29.715
2023-05-08T07:25:15.976Z,29.710
2023-05-08T07:30:16.073Z,29.707
2023-05-08T07:35:16.307Z,29.709
2023-05-08T07:40:15.974Z,29.707
2023-05-08T07:45:16.202Z,29.705
2023-05-08T07:50:16.051Z,29.705
2023-05-08T07:55:16.010Z,29.703
2023-05-08T08:00:16.045Z,29.701
2023-05-08T08:05:16.086Z,29.703
2023-05-08T08:10:16.060Z,29.702
2023-05-08T08:15:16.132Z,29.703
2023-05-08T08:20:16.121Z,29.698
2023-05-08T08:25:16.074Z,29.696
2023-05-08T08:30:18.365Z,29.694
2023-05-08T08:35:16.701Z,29.693
2023-05-08T08:40:16.295Z,29.695
2023-05-08T08:45:16.656Z,29.695
2023-05-08T08:50:16.182Z,29.691
2023-05-08T08:55:16.272Z,29.688
2023-05-08T09:00:16.132Z,29.688
2023-05-08T09:05:16.190Z,29.688
2023-05-08T09:10:16.168Z,29.687
2023-05-08T09:15:16.386Z,29.686
2023-05-08T09:20:16.286Z,29.688
2023-05-08T09:25:16.374Z,29.686
2023-05-08T09:30:16.248Z,29.690
2023-05-08T09:35:16.433Z,29.685
2023-05-08T09:40:16.304Z,29.685
2023-05-08T09:45:16.183Z,29.683
2023-05-08T09:50:16.497Z,29.690
2023-05-08T09:55:16.304Z,29.688
2023-05-08T10:00:16.574Z,29.690
2023-05-08T10:05:16.415Z,29.689
2023-05-08T10:10:16.517Z,29.691
2023-05-08T10:15:16.304Z,29.688
2023-05-08T10:20:16.359Z,29.689
2023-05-08T10:25:16.291Z,29.690
2023-05-08T10:30:16.347Z,29.690
2023-05-08T10:35:16.341Z,29.690
2023-05-08T10:40:16.537Z,29.693
2023-05-08T10:45:16.391Z,29.692
2023-05-08T10:50:16.461Z,29.694
2023-05-08T10:55:16.396Z,29.697
2023-05-08T11:00:16.447Z,29.697
2023-05-08T11:05:16.382Z,29.699
2023-05-08T11:10:16.678Z,29.699
2023-05-08T11:15:16.408Z,29.697
2023-05-08T11:20:16.697Z,29.699
2023-05-08T11:25:16.584Z,29.703
2023-05-08T11:30:16.425Z,29.702
2023-05-08T11:35:16.514Z,29.704
2023-05-08T11:40:16.556Z,29.703
2023-05-08T11:45:16.462Z,29.707
2023-05-08T11:50:16.878Z,29.711
2023-05-08T11:55:16.529Z,29.714
2023-05-08T12:00:16.967Z,29.712
2023-05-08T12:05:16.586Z,29.715
2023-05-08T12:10:17.315Z,29.719
2023-05-08T12:15:16.603Z,29.722
2023-05-08T12:20:17.040Z,29.722
2023-05-08T12:25:16.702Z,29.722
2023-05-08T12:30:17.135Z,29.723
2023-05-08T12:35:16.602Z,29.722
2023-05-08T12:40:16.648Z,29.727
2023-05-08T12:45:16.644Z,29.727
2023-05-08T12:50:16.674Z,29.722
2023-05-08T12:55:16.596Z,29.721
2023-05-08T13:00:16.851Z,29.715
2023-05-08T13:05:16.677Z,29.714
2023-05-08T13:10:16.753Z,29.715
2023-05-08T13:15:16.766Z,29.715
2023-05-08T13:20:16.877Z,29.717
2023-05-08T13:25:16.627Z,29.719
2023-05-08T13:30:16.813Z,29.719
2023-05-08T13:35:17.175Z,29.717
2023-05-08T13:40:16.701Z,29.716
2023-05-08T13:45:16.934Z,29.716
2023-05-08T13:50:16.970Z,29.714
2023-05-08T13:55:17.065Z,29.712
2023-05-08T14:00:16.816Z,29.708
2023-05-08T14:05:16.997Z,29.709
2023-05-08T14:10:16.774Z,29.712
2023-05-08T14:15:17.070Z,29.710
2023-05-08T14:20:16.966Z,29.707
2023-05-08T14:25:16.836Z,29.704
2023-05-08T14:30:16.833Z,29.701
2023-05-08T14:35:17.019Z,29.698
2023-05-08T14:40:17.004Z,29.697
2023-05-08T14:45:17.207Z,29.698
2023-05-08T14:50:17.105Z,29.696
2023-05-08T14:55:17.359Z,29.691
2023-05-08T15:00:17.178Z,29.691
2023-05-08T15:05:19.950Z,29.687
2023-05-08T15:10:16.981Z,29.689
2023-05-08T15:15:17.112Z,29.688
2023-05-08T15:20:17.099Z,29.685
2023-05-08T15:25:17.154Z,29.686
2023-05-08T15:30:16.982Z,29.686
2023-05-08T15:35:17.038Z,29.683
2023-05-08T15:40:17.028Z,29.678
2023-05-08T15:45:17.208Z,29.680
2023-05-08T15:50:17.098Z,29.681
2023-05-08T15:55:16.970Z,29.684
2023-05-08T16:00:17.138Z,29.684
2023-05-08T16:05:17.028Z,29.686
2023-05-08T16:10:17.074Z,29.688
2023-05-08T16:15:16.976Z,29.688
2023-05-08T16:20:17.072Z,29.685
2023-05-08T16:25:17.087Z,29.686
2023-05-08T16:30:17.143Z,29.682
2023-05-08T16:35:17.145Z,29.682
2023-05-08T16:40:17.235Z,29.680
2023-05-08T16:45:17.203Z,29.681
2023-05-08T16:50:17.269Z,29.680
2023-05-08T16:55:17.271Z,29.678
2023-05-08T17:00:17.175Z,29.681
2023-05-08T17:05:17.289Z,29.681
2023-05-08T17:10:17.208Z,29.679
2023-05-08T17:15:17.155Z,29.680
2023-05-08T17:20:17.217Z,29.682
2023-05-08T17:25:17.241Z,29.684
2023-05-08T17:30:17.313Z,29.685
2023-05-08T17:35:17.349Z,29.683
2023-05-08T17:40:17.281Z,29.682
2023-05-08T17:45:17.204Z,29.680
2023-05-08T17:50:17.459Z,29.684
2023-05-08T17:55:17.513Z,29.684
2023-05-08T18:00:17.319Z,29.685
2023-05-08T18:05:17.324Z,29.683
2023-05-08T18:10:17.294Z,29.683
2023-05-08T18:15:17.505Z,29.683
2023-05-08T18:20:17.376Z,29.680
2023-05-08T18:25:17.264Z,29.680
2023-05-08T18:30:17.299Z,29.680
2023-05-08T18:35:17.367Z,29.679
2023-05-08T18:40:17.257Z,29.683
2023-05-08T18:45:17.484Z,29.685
2023-05-08T18:50:17.585Z,29.689
2023-05-08T18:55:17.429Z,29.687
2023-05-08T19:00:17.733Z,29.683
2023-05-08T19:05:17.385Z,29.681
2023-05-08T19:10:15.733Z,29.685
2023-05-08T19:15:15.846Z,29.686
2023-05-08T19:20:15.788Z,29.685
2023-05-08T19:25:15.769Z,29.688
2023-05-08T19:30:15.687Z,29.690
2023-05-08T19:35:15.584Z,29.689
2023-05-08T19:40:16.625Z,29.693
2023-05-08T19:45:16.608Z,29.690
2023-05-08T19:50:16.333Z,29.693
2023-05-08T19:55:17.027Z,29.692
2023-05-08T20:00:15.675Z,29.694
2023-05-08T20:05:22.346Z,29.694
2023-05-08T20:10:15.852Z,29.696
2023-05-08T20:15:16.303Z,29.699
2023-05-08T20:20:15.794Z,29.700
2023-05-08T20:25:15.545Z,29.700
2023-05-08T20:30:15.694Z,29.704
2023-05-08T20:35:15.766Z,29.705
2023-05-08T20:40:15.904Z,29.700
2023-05-08T20:45:15.588Z,29.702
2023-05-08T20:50:15.764Z,29.704
2023-05-08T20:55:15.848Z,29.709
2023-05-08T21:00:15.845Z,29.713
2023-05-08T21:05:15.905Z,29.715
2023-05-08T21:10:15.935Z,29.713
2023-05-08T21:15:15.849Z,29.713
2023-05-08T21:20:15.990Z,29.712
2023-05-08T21:25:15.947Z,29.717
2023-05-08T21:30:15.901Z,29.720
2023-05-08T21:35:16.011Z,29.723
2023-05-08T21:40:15.801Z,29.722
2023-05-08T21:45:16.113Z,29.725
2023-05-08T21:50:15.741Z,29.728
2023-05-08T21:55:15.844Z,29.731
2023-05-08T22:00:15.693Z,29.732
2023-05-08T22:05:16.034Z,29.735
2023-05-08T22:10:15.785Z,29.737
2023-05-08T22:15:28.523Z,29.736
2023-05-08T22:20:15.913Z,29.739
2023-05-08T22:25:16.130Z,29.741
2023-05-08T22:30:15.896Z,29.745
2023-05-08T22:35:16.014Z,29.751
2023-05-08T22:40:15.961Z,29.753
2023-05-08T22:45:16.201Z,29.759
2023-05-08T22:50:15.905Z,29.757
2023-05-08T22:55:16.803Z,29.761
2023-05-08T23:00:15.929Z,29.766
2023-05-08T23:05:16.144Z,29.768
2023-05-08T23:10:16.206Z,29.772
2023-05-08T23:15:16.151Z,29.775
2023-05-08T23:20:15.922Z,29.778
2023-05-08T23:25:16.162Z,29.781
2023-05-08T23:30:15.987Z,29.784
2023-05-08T23:35:16.486Z,29.790
2023-05-08T23:40:16.131Z,29.793
2023-05-08T23:45:16.191Z,29.794
2023-05-08T23:50:16.021Z,29.798
2023-05-08T23:55:16.083Z,29.800
